Tiempo atmosférico en la estación meteorológica de A Lama, Pontevedra (395 m.)



Fecha
DESCASC
Temp. máxima en grados centígrados (hora)
DESCASC
Temp. mínima en grados centígrados (hora)
DESCASC
Temp. media en grados centígrados
DESCASC
Racha de viento máxima en m/sg (hora)
DESCASC
Velocidad máxima media en intervalos de 10 minutos(hora)
DESCASC
Precipitaciones diarias en mm
DESCASC
Precipitaciones de 00:00 a 06:00 en mm
DESCASC
Precipitaciones de 06:00 a 12:00 en mm
DESCASC
Precipitaciones de 12:00 a 18:00 en mm
DESCASC
Precipitaciones de 18:00 a 24:00 en mm
DESCASC
17-08-2018 23.8 (16:10) 15.4 (08:00) 19.6 13.06 (23:00) 7.5 (23:59) 0 0 0 0 0
16-08-2018 26.7 (15:30) 13.3 (06:30) 20 12.78 (10:40) 7.5 (10:40) 0 0 0 0 0
15-08-2018 30.8 (15:50) 17.4 (23:59) 24.1 9.72 (04:50) 6.39 (05:20) 0 0 0 0 0
14-08-2018 30.6 (18:10) 14.3 (03:50) 22.5 12.22 (06:10) 7.78 (06:30) 0 0 0 0 0
13-08-2018 21.7 (19:20) 12.6 (03:20) 17.2 7.22 (23:10) 3.61 (17:20) 0.2 0 0.2 0 0
12-08-2018 23.3 (14:20) 10.8 (00:00) 17 5.83 (16:00) 3.33 (18:40) 1.8 0 0 1 0.8
11-08-2018 29 (17:40) 8.3 (00:00) 18.7 8.06 (03:10) 4.17 (03:00) 0 0 0 0 0
10-08-2018 25.9 (17:10) 12.1 (00:00) 19 10.28 (10:10) 5.83 (10:10) 0 0 0 0 0
09-08-2018 21.8 (18:00) 11.9 (00:00) 16.8 8.33 (11:50) 4.44 (18:00) 2.4 2.4 0 0 0
08-08-2018 22.3 (13:50) 10.5 (00:00) 16.4 8.06 (19:10) 4.17 (19:10) 3.8 0 0 0 3.8
07-08-2018 23.2 (16:10) 15.1 (00:00) 19.2 7.5 (16:00) 4.44 (17:30) 0.4 0.4 0 0 0
06-08-2018 21.5 (00:00) 14.7 (00:00) 18.1 7.22 (17:20) 3.61 (17:20) 0 0 0 0 0
05-08-2018 35.8 (15:40) 17.7 (00:00) 26.8 7.78 (10:50) 4.72 (11:00) 0 0 0 0 0
04-08-2018 37.5 (16:20) 19.8 (07:30) 28.6 6.11 (17:00) 3.89 (17:00) 0 0 0 0 0
03-08-2018 37.7 (15:20) 19.5 (00:00) 28.6 5.28 (06:50) 3.06 (15:40) 0 0 0 0 0
02-08-2018 36.7 (16:00) 22.3 (00:00) 29.5 10.28 (06:20) 6.11 (06:30) 0 0 0 0 0
01-08-2018 29.7 (17:20) 13.8 (07:50) 21.8 13.33 (09:10) 8.61 (09:10) 0 0 0 0 0
31-07-2018 23.6 (18:00) 14.6 (00:00) 19.1 7.22 (20:20) 3.89 (20:00) 0.2 0.2 0 0 0
30-07-2018 20 (14:10) 15.4 (00:00) 17.7 7.22 (20:20) 3.33 (20:20) 16 1 1.2 4.4 9.4
29-07-2018 19 (16:10) 9.1 (00:00) 14.1 7.78 (14:50) 3.33 (11:20) 0.4 0 0 0 0.4
28-07-2018 22.4 (16:20) 14.7 (00:00) 18.5 6.67 (16:40) 3.61 (16:40) 0.6 0 0.6 0 0
27-07-2018 21.1 (16:10) 12.7 (00:00) 16.9 6.94 (17:30) 3.89 (16:40) 1 0 1 0 0
26-07-2018 22.9 (18:10) 14.5 (00:00) 18.7 5.83 (15:00) 3.33 (15:30) 0 0 0 0 0
25-07-2018 27.4 (16:00) 16.9 (00:00) 22.1 8.61 (04:20) 5 (04:20) 0 0 0 0 0
24-07-2018 25.1 (17:50) 13.4 (00:00) 19.3 6.94 (18:00) 4.72 (18:00) 0 0 0 0 0
23-07-2018 27 (14:40) 16 (00:00) 21.5 9.44 (00:50) 5.83 (00:40) 0 0 0 0 0
22-07-2018 28.1 (18:20) 15.4 (00:00) 21.8 11.11 (08:30) 6.94 (08:40) 0 0 0 0 0
21-07-2018 21.5 (17:50) 9.4 (07:10) 15.4 6.67 (16:10) 3.61 (12:30) 0 0 0 0 0
20-07-2018 23 (16:20) 14.6 (00:00) 18.8 7.5 (10:20) 3.33 (19:30) 0 0 0 0 0

Gráficas

Temp. máximas Temp. mínimas Temp. medias Precipitaciones Rachas de viento máximas Velocidades máximas media en intervalos de 10 minutos

Datos horarios

Fecha y hora oficial Temperatura (ºC) Velocidad del viento (km/h) Dirección del viento Racha (km/h) Dirección de racha Precipitación (mm) Presión (hPa) Tendencia (hPa) Humedad (%)
2018-08-18 23:00:00 21.7 10 Nordeste 21 Este 0 -- -- 59
2018-08-18 22:00:00 22.7 8 Este 18 Este 0 -- -- 61
2018-08-18 21:00:00 26 3 Nordeste 9 Norte 0 -- -- 47
2018-08-18 20:00:00 28 3 Este 23 Este 0 -- -- 37
2018-08-18 19:00:00 28.3 11 Este 23 Este 0 -- -- 34
2018-08-18 18:00:00 28 11 Este 22 Sudeste 0 -- -- 32
2018-08-18 17:00:00 28.7 11 Este 28 Este 0 -- -- 31
2018-08-18 16:00:00 27.7 10 Este 24 Sudeste 0 -- -- 36
2018-08-18 15:00:00 26.8 10 Este 27 Este 0 -- -- 39
2018-08-18 14:00:00 25.5 10 Este 21 Sudeste 0 -- -- 40
2018-08-18 13:00:00 24.3 9 Este 19 Este 0 -- -- 45
2018-08-18 12:00:00 22.1 9 Noroeste 20 Este 0 -- -- 54
2018-08-18 11:00:00 19.7 14 Este 44 Este 0 -- -- 58
2018-08-18 10:00:00 18 29 Este 46 Este 0 -- -- 66
2018-08-18 09:00:00 17.3 24 Este 45 Este 0 -- -- 68
2018-08-18 08:00:00 16.7 32 Este 51 Este 0 -- -- 71
2018-08-18 07:00:00 17.9 28 Este 48 Este 0 -- -- 68
2018-08-18 06:00:00 18.3 29 Este 53 Este 0 -- -- 67
2018-08-18 05:00:00 18 28 Este 52 Este 0 -- -- 67
2018-08-18 04:00:00 18 33 Este 58 Este 0 -- -- 66
2018-08-18 03:00:00 17.7 32 Este 52 Este 0 -- -- 65
2018-08-18 02:00:00 17.2 30 Este 54 Este 0 -- -- 67
2018-08-18 01:00:00 17.2 26 Este 49 Este 0 -- -- 67
2018-08-18 00:00:00 17.3 27 Este 46 Este 0 -- -- 68
2018-08-17 23:00:00 17.6 23 Este 47 Este 0 -- -- 70
2018-08-17 22:00:00 18.1 16 Este 35 Este 0 -- -- 69
2018-08-17 21:00:00 19.7 18 Este 37 Este 0 -- -- 64
2018-08-17 20:00:00 21.4 15 Este 36 Nordeste 0 -- -- 60
2018-08-17 19:00:00 21.8 19 Este 46 Este 0 -- -- 60
2018-08-17 18:00:00 22.7 18 Este 34 Este 0 -- -- 57
2018-08-17 17:00:00 23.4 14 Este 33 Este 0 -- -- 57
2018-08-17 16:00:00 23.6 14 Nordeste 32 Nordeste 0 -- -- 56
2018-08-17 15:00:00 23.6 10 Nordeste 33 Este 0 -- -- 57
2018-08-17 14:00:00 22 14 Este 36 Nordeste 0 -- -- 60
2018-08-17 13:00:00 20.8 18 Este 39 Este 0 -- -- 62
2018-08-17 12:00:00 19.5 14 Este 38 Nordeste 0 -- -- 68
2018-08-17 11:00:00 18.4 12 Este 39 Este 0 -- -- 70
2018-08-17 10:00:00 17.1 17 Este 33 Este 0 -- -- 74
2018-08-17 09:00:00 15.9 7 Este 23 Sudeste 0 -- -- 79
2018-08-17 08:00:00 15.4 8 Nordeste 31 Este 0 -- -- 82
2018-08-17 07:00:00 16.3 11 Norte 29 Nordeste 0 -- -- 81
2018-08-17 06:00:00 16.8 13 Norte 28 Norte 0 -- -- 81
2018-08-17 05:00:00 17.2 10 Norte 32 Noroeste 0 -- -- 80
2018-08-17 04:00:00 17 10 Norte 36 Norte 0 -- -- 81
2018-08-17 03:00:00 17.1 9 Norte 26 Nordeste 0 -- -- 81
2018-08-17 02:00:00 17.3 9 Norte 23 Noroeste 0 -- -- 81
2018-08-17 01:00:00 17.7 8 Nordeste 27 Norte 0 -- -- 82
2018-08-17 00:00:00 17.8 10 Norte 27 Nordeste 0 -- -- 84
2018-08-16 23:00:00 18.2 11 Norte 22 Norte 0 -- -- 82
2018-08-16 22:00:00 18.7 11 Norte 31 Norte 0 -- -- 79
2018-08-16 21:00:00 20.2 9 Norte 26 Este 0 -- -- 74
2018-08-16 20:00:00 22.1 10 Norte 26 Nordeste 0 -- -- 67
2018-08-16 19:00:00 23.6 8 Nordeste 32 Noroeste 0 -- -- 64
2018-08-16 18:00:00 24.3 10 Nordeste 30 Norte 0 -- -- 62
2018-08-16 17:00:00 25.8 18 Noroeste 28 Noroeste 0 -- -- 60
2018-08-16 16:00:00 26.3 10 Norte 27 Norte 0 -- -- 57
2018-08-16 15:00:00 26.3 11 Nordeste 24 Noroeste 0 -- -- 56
2018-08-16 14:00:00 25.4 9 Nordeste 23 Noroeste 0 -- -- 58
2018-08-16 13:00:00 24.8 8 Nordeste 27 Este 0 -- -- 60
2018-08-16 12:00:00 22.5 14 Este 33 Este 0 -- -- 65
2018-08-16 11:00:00 20.3 18 Este 46 Este 0 -- -- 73
2018-08-16 10:00:00 19 13 Este 34 Este 0 -- -- 78
2018-08-16 09:00:00 17 12 Este 32 Este 0 -- -- 85
2018-08-16 08:00:00 15.1 8 Norte 21 Norte 0 -- -- 91
2018-08-16 07:00:00 15.5 9 Nordeste 15 Nordeste 0 -- -- 94
2018-08-16 06:00:00 14.1 2 Este 10 Norte 0 -- -- 94
2018-08-16 05:00:00 14.8 6 Noroeste 13 Noroeste 0 -- -- 94
2018-08-16 04:00:00 15 4 Norte 15 Norte 0 -- -- 92
2018-08-16 03:00:00 16.6 6 Nordeste 14 Nordeste 0 -- -- 87
2018-08-16 02:00:00 16.4 6 Nordeste 14 Nordeste 0 -- -- 88
2018-08-16 01:00:00 16.9 2 Nordeste 9 Nordeste 0 -- -- 91
2018-08-16 00:00:00 17.4 2 Noroeste 5 Noroeste 0 -- -- 88
2018-08-15 23:00:00 19 2 Noroeste 4 Noroeste 0 -- -- 83
2018-08-15 22:00:00 22.8 0 Calma 9 Noroeste 0 -- -- 68
2018-08-15 21:00:00 26.8 6 Noroeste 15 Noroeste 0 -- -- 50
2018-08-15 20:00:00 28.4 6 Noroeste 15 Noroeste 0 -- -- 44
2018-08-15 19:00:00 28.9 11 Noroeste 21 Noroeste 0 -- -- 44
2018-08-15 18:00:00 29.9 14 Noroeste 21 Noroeste 0 -- -- 42
2018-08-15 17:00:00 30.3 12 Noroeste 23 Noroeste 0 -- -- 39
2018-08-15 16:00:00 30.7 12 Noroeste 22 Noroeste 0 -- -- 40
2018-08-15 15:00:00 30.5 9 Noroeste 23 Noroeste 0 -- -- 38
2018-08-15 14:00:00 30 15 Noroeste 22 Noroeste 0 -- -- 37
2018-08-15 13:00:00 29.5 10 Noroeste 21 Noroeste 0 -- -- 36
2018-08-15 12:00:00 26.6 13 Este 29 Este 0 -- -- 52
2018-08-15 11:00:00 24.9 18 Este 34 Este 0 -- -- 55
2018-08-15 10:00:00 23.9 20 Este 33 Este 0 -- -- 55
2018-08-15 09:00:00 22.9 12 Este 31 Este 0 -- -- 58
2018-08-15 08:00:00 22 16 Este 34 Este 0 -- -- 58
2018-08-15 07:00:00 22.5 22 Este 35 Este 0 -- -- 57
2018-08-15 06:00:00 22.8 20 Este 35 Este 0 -- -- 57
2018-08-15 05:00:00 22.3 20 Este 35 Este 0 -- -- 65
2018-08-15 04:00:00 22.1 19 Este 33 Este 0 -- -- 67
2018-08-15 03:00:00 21.1 11 Este 27 Este 0 -- -- 71
2018-08-15 02:00:00 21.9 11 Este 28 Este 0 -- -- 66
2018-08-15 01:00:00 20.9 10 Este 23 Este 0 -- -- 70
2018-08-15 00:00:00 20.2 4 Norte 16 Nordeste 0 -- -- 75
2018-08-14 23:00:00 21.9 8 Nordeste 22 Nordeste 0 -- -- 70
2018-08-14 22:00:00 23.6 5 Norte 17 Este 0 -- -- 66
2018-08-14 21:00:00 26.4 6 Nordeste 21 Norte 0 -- -- 55
2018-08-14 20:00:00 29 6 Norte 19 Norte 0 -- -- 49
2018-08-14 19:00:00 30.4 6 Nordeste 17 Este 0 -- -- 44
2018-08-14 18:00:00 30.5 8 Este 20 Sudeste 0 -- -- 35
2018-08-14 17:00:00 30.2 9 Este 27 Este 0 -- -- 38
2018-08-14 16:00:00 29.6 12 Este 25 Este 0 -- -- 39
2018-08-14 15:00:00 28.3 12 Este 22 Este 0 -- -- 45
2018-08-14 14:00:00 25.9 10 Este 30 Este 0 -- -- 53
2018-08-14 13:00:00 23.8 11 Este 29 Sudeste 0 -- -- 56
2018-08-14 12:00:00 21.9 12 Este 27 Este 0 -- -- 60
2018-08-14 11:00:00 20.3 10 Este 27 Este 0 -- -- 65
2018-08-14 10:00:00 18.3 14 Este 39 Este 0 -- -- 72
2018-08-14 09:00:00 16.3 24 Este 40 Este 0 -- -- 77
2018-08-14 08:00:00 15.3 21 Este 37 Este 0 -- -- 81
2018-08-14 07:00:00 15.8 23 Este 44 Este 0 -- -- 78
2018-08-14 06:00:00 15.6 23 Este 40 Este 0 -- -- 81
2018-08-14 05:00:00 15.5 17 Este 33 Nordeste 0 -- -- 83
2018-08-14 04:00:00 14.7 9 Este 24 Este 0 -- -- 88
2018-08-14 03:00:00 15.3 12 Este 28 Este 0 -- -- 86
2018-08-14 02:00:00 15.3 10 Este 26 Este 0 -- -- 87
2018-08-14 01:00:00 15.6 11 Este 22 Este 0 -- -- 86
2018-08-14 00:00:00 16 6 Nordeste 26 Nordeste 0 -- -- 86
2018-08-13 23:00:00 16.4 3 Norte 10 Norte 0 -- -- 86
2018-08-13 22:00:00 17.9 4 Este 13 Nordeste 0 -- -- 82
2018-08-13 21:00:00 20.4 5 Norte 15 Este 0 -- -- 72
2018-08-13 20:00:00 20.6 4 Norte 18 Norte 0 -- -- 73
2018-08-13 19:00:00 21.3 9 Norte 22 Noroeste 0 -- -- 68
2018-08-13 18:00:00 21.1 12 Noroeste 23 Norte 0 -- -- 71
2018-08-13 17:00:00 21.4 5 Nordeste 19 Noroeste 0 -- -- 66
2018-08-13 16:00:00 20.3 6 Norte 20 Noroeste 0 -- -- 71
2018-08-13 15:00:00 20.4 9 Norte 18 Noroeste 0 -- -- 71
2018-08-13 14:00:00 19.8 11 Noroeste 16 Noroeste 0 -- -- 72
2018-08-13 13:00:00 18.4 7 Noroeste 16 Norte 0 -- -- 81
2018-08-13 12:00:00 18.3 3 Oeste 8 Norte 0 -- -- 84
2018-08-13 11:00:00 16.3 2 Oeste 5 Sur 0.2 -- -- 94
2018-08-13 10:00:00 15.8 3 Sudoeste 6 Sudoeste 0 -- -- 96
2018-08-13 09:00:00 14.2 3 Noroeste 5 Noroeste 0 -- -- 98
2018-08-13 08:00:00 13.8 2 Sudeste 8 Norte 0 -- -- 98
2018-08-13 07:00:00 13.6 2 Norte 5 Norte 0 -- -- 98
2018-08-13 06:00:00 13.5 0 Calma 5 Nordeste 0 -- -- 98
2018-08-13 05:00:00 13.2 0 Calma 5 Noroeste 0 -- -- 98
2018-08-13 04:00:00 13 2 Nordeste 4 Noroeste 0 -- -- 98
2018-08-13 03:00:00 12.8 0 Calma 4 Noroeste 0 -- -- 96
2018-08-13 02:00:00 14.3 0 Calma 4 Nordeste 0 -- -- 95
2018-08-13 01:00:00 15.2 2 Sudeste 16 Noroeste 0 -- -- 95
2018-08-13 00:00:00 15.8 3 Noroeste 7 Noroeste 0 -- -- 96
2018-08-12 23:00:00 16.2 2 Noroeste 10 Oeste 0 -- -- 95
2018-08-12 22:00:00 16.6 5 Oeste 15 Oeste 0 -- -- 95
2018-08-12 21:00:00 17.3 6 Oeste 13 Oeste 0 -- -- 96
2018-08-12 20:00:00 17.9 8 Oeste 15 Noroeste 0.2 -- -- 95
2018-08-12 19:00:00 18.4 8 Oeste 20 Noroeste 0.6 -- -- 95
2018-08-12 18:00:00 19.5 9 Oeste 18 Oeste 0.2 -- -- 92
2018-08-12 17:00:00 19.6 6 Oeste 17 Oeste 0.8 -- -- 92
2018-08-12 16:00:00 21.3 11 Oeste 21 Oeste 0 -- -- 79
2018-08-12 15:00:00 22 8 Oeste 18 Sudoeste 0 -- -- 76
2018-08-12 14:00:00 22.8 9 Sudoeste 18 Sudoeste 0 -- -- 71
2018-08-12 13:00:00 21 4 Oeste 14 Sudoeste 0 -- -- 74
2018-08-12 12:00:00 20.6 8 Sudoeste 12 Sur 0 -- -- 68
2018-08-12 11:00:00 19.9 6 Sudoeste 10 Sudoeste 0 -- -- 67
2018-08-12 10:00:00 18.5 0 Calma 6 Noroeste 0 -- -- 74
2018-08-12 09:00:00 13.7 3 Norte 6 Noroeste 0 -- -- 87
2018-08-12 08:00:00 10.8 4 Noroeste 7 Noroeste 0 -- -- 92
2018-08-12 07:00:00 11.1 3 Noroeste 8 Noroeste 0 -- -- 92
2018-08-12 06:00:00 11.2 4 Noroeste 8 Noroeste 0 -- -- 91
2018-08-12 05:00:00 11.6 3 Norte 7 Noroeste 0 -- -- 91
2018-08-12 04:00:00 12.2 4 Noroeste 10 Norte 0 -- -- 89
2018-08-12 03:00:00 13.3 3 Norte 12 Nordeste 0 -- -- 87
2018-08-12 02:00:00 15.4 5 Nordeste 12 Nordeste 0 -- -- 78
2018-08-12 01:00:00 16.6 6 Nordeste 12 Nordeste 0 -- -- 79
2018-08-12 00:00:00 17.4 4 Nordeste 9 Este 0 -- -- 81
2018-08-11 23:00:00 19.7 4 Nordeste 10 Este 0 -- -- 73
2018-08-11 22:00:00 21.7 0 Calma 9 Noroeste 0 -- -- 72
2018-08-11 21:00:00 25.2 5 Noroeste 13 Noroeste 0 -- -- 57
2018-08-11 20:00:00 26.2 8 Noroeste 19 Noroeste 0 -- -- 53
2018-08-11 19:00:00 27.3 11 Noroeste 23 Noroeste 0 -- -- 53
2018-08-11 18:00:00 28.8 12 Noroeste 19 Oeste 0 -- -- 46
2018-08-11 17:00:00 28.8 9 Noroeste 21 Noroeste 0 -- -- 45
2018-08-11 16:00:00 28.7 10 Noroeste 18 Oeste 0 -- -- 44
2018-08-11 15:00:00 28.8 8 Oeste 15 Sudoeste 0 -- -- 38
2018-08-11 14:00:00 28 7 Sudoeste 14 Sudoeste 0 -- -- 43
2018-08-11 13:00:00 26.3 9 Sudoeste 14 Sudoeste 0 -- -- 45
2018-08-11 12:00:00 25 5 Sudoeste 12 Oeste 0 -- -- 55
2018-08-11 11:00:00 22.7 2 Noroeste 7 Noroeste 0 -- -- 49
2018-08-11 10:00:00 17.1 4 Noroeste 9 Norte 0 -- -- 71
2018-08-11 09:00:00 11.7 5 Noroeste 9 Noroeste 0 -- -- 77
2018-08-11 08:00:00 9.2 6 Noroeste 14 Norte 0 -- -- 81
2018-08-11 07:00:00 9.1 6 Noroeste 13 Noroeste 0 -- -- 80
2018-08-11 06:00:00 9.6 7 Norte 11 Norte 0 -- -- 83
2018-08-11 05:00:00 13.3 3 Norte 21 Este 0 -- -- 67
2018-08-11 04:00:00 17.4 12 Este 29 Este 0 -- -- 51
2018-08-11 03:00:00 18.1 15 Este 28 Este 0 -- -- 56
2018-08-11 02:00:00 15.2 9 Nordeste 19 Este 0 -- -- 82
2018-08-11 01:00:00 15.8 7 Norte 18 Norte 0 -- -- 80
2018-08-11 00:00:00 17.9 8 Nordeste 22 Este 0 -- -- 78
2018-08-10 23:00:00 19.2 13 Nordeste 20 Nordeste 0 -- -- 75
2018-08-10 22:00:00 20.3 6 Norte 18 Este 0 -- -- 73
2018-08-10 21:00:00 22.7 5 Nordeste 19 Norte 0 -- -- 65
2018-08-10 20:00:00 24.4 11 Noroeste 28 Noroeste 0 -- -- 60
2018-08-10 19:00:00 25.1 17 Noroeste 29 Noroeste 0 -- -- 56
2018-08-10 18:00:00 25.6 16 Noroeste 25 Noroeste 0 -- -- 56
2018-08-10 17:00:00 25.5 13 Noroeste 21 Noroeste 0 -- -- 52
2018-08-10 16:00:00 25 10 Noroeste 20 Noroeste 0 -- -- 54
2018-08-10 15:00:00 24.5 10 Noroeste 20 Noroeste 0 -- -- 55
2018-08-10 14:00:00 23.8 11 Noroeste 19 Sur 0 -- -- 56
2018-08-10 13:00:00 23.1 5 Norte 17 Este 0 -- -- 49
2018-08-10 12:00:00 20.6 12 Este 25 Este 0 -- -- 58
2018-08-10 11:00:00 18.6 15 Este 37 Este 0 -- -- 63
2018-08-10 10:00:00 16.8 21 Este 37 Este 0 -- -- 66
2018-08-10 09:00:00 15.1 20 Este 33 Este 0 -- -- 69
2018-08-10 08:00:00 13.1 14 Este 30 Este 0 -- -- 76
2018-08-10 07:00:00 12.6 12 Nordeste 30 Este 0 -- -- 79
2018-08-10 06:00:00 12.4 16 Este 31 Sudeste 0 -- -- 80
2018-08-10 05:00:00 12.2 13 Este 30 Este 0 -- -- 80
2018-08-10 04:00:00 12.6 11 Nordeste 28 Este 0 -- -- 76
2018-08-10 03:00:00 12.9 16 Este 33 Este 0 -- -- 72
2018-08-10 02:00:00 13.2 15 Este 26 Este 0 -- -- 74
2018-08-10 01:00:00 13.2 6 Nordeste 15 Nordeste 0 -- -- 79
2018-08-10 00:00:00 14 5 Nordeste 26 Este 0 -- -- 74
2018-08-09 23:00:00 14.5 6 Nordeste 17 Nordeste 0 -- -- 71
2018-08-09 22:00:00 15.9 4 Este 19 Noroeste 0 -- -- 69
2018-08-09 21:00:00 18.5 5 Norte 24 Norte 0 -- -- 63
2018-08-09 20:00:00 20.3 14 Noroeste 25 Norte 0 -- -- 58
2018-08-09 19:00:00 21.7 11 Norte 30 Noroeste 0 -- -- 48
2018-08-09 18:00:00 21.8 16 Noroeste 28 Noroeste 0 -- -- 48
2018-08-09 17:00:00 21.2 6 Norte 18 Noroeste 0 -- -- 51
2018-08-09 16:00:00 20.1 6 Nordeste 25 Nordeste 0 -- -- 55
2018-08-09 15:00:00 19.3 8 Nordeste 20 Noroeste 0 -- -- 63
2018-08-09 14:00:00 20.1 11 Norte 27 Norte 0 -- -- 57
2018-08-09 13:00:00 18.9 12 Este 26 Nordeste 0 -- -- 62
2018-08-09 12:00:00 18 9 Nordeste 30 Norte 0 -- -- 66
2018-08-09 11:00:00 16.7 9 Norte 20 Norte 0 -- -- 78
2018-08-09 10:00:00 15.1 8 Norte 21 Norte 0 -- -- 85
2018-08-09 09:00:00 13.7 5 Norte 15 Noroeste 0 -- -- 88
2018-08-09 08:00:00 12 3 Nordeste 9 Nordeste 0 -- -- 93
2018-08-09 07:00:00 11.9 3 Norte 7 Nordeste 0 -- -- 94
2018-08-09 06:00:00 12.4 4 Norte 11 Este 0 -- -- 92
2018-08-09 05:00:00 12.8 2 Noroeste 13 Norte 0 -- -- 92
2018-08-09 04:00:00 13.5 4 Nordeste 13 Noroeste 0 -- -- 94
2018-08-09 03:00:00 13.8 4 Nordeste 11 Nordeste 0 -- -- 97
2018-08-09 02:00:00 14.1 3 Norte 10 Norte 2.4 -- -- 98
2018-08-09 01:00:00 14 3 Norte 9 Este 0 -- -- 97
2018-08-09 00:00:00 14.1 2 Sudeste 7 Nordeste 0.2 -- -- 96
2018-08-08 23:00:00 14.1 2 Norte 6 Nordeste 0 -- -- 95
2018-08-08 22:00:00 14.6 2 Nordeste 6 Nordeste 0 -- -- 94
2018-08-08 21:00:00 15.1 4 Este 12 Este 1.8 -- -- 94
2018-08-08 20:00:00 15.4 4 Sudeste 29 Oeste 1.8 -- -- 91
2018-08-08 19:00:00 18.1 12 Oeste 23 Oeste 0 -- -- 82
2018-08-08 18:00:00 19.5 14 Noroeste 24 Noroeste 0 -- -- 74
2018-08-08 17:00:00 20.9 13 Noroeste 22 Noroeste 0 -- -- 69
2018-08-08 16:00:00 21 10 Noroeste 24 Noroeste 0 -- -- 68
2018-08-08 15:00:00 21.7 12 Noroeste 21 Oeste 0 -- -- 66
2018-08-08 14:00:00 22 9 Noroeste 21 Noroeste 0 -- -- 59
2018-08-08 13:00:00 21.8 7 Oeste 18 Sudoeste 0 -- -- 60
2018-08-08 12:00:00 20.1 8 Sudoeste 15 Oeste 0 -- -- 70
2018-08-08 11:00:00 19.1 3 Oeste 9 Sudoeste 0 -- -- 75
2018-08-08 10:00:00 16.7 3 Sudeste 5 Noroeste 0 -- -- 82
2018-08-08 09:00:00 12.7 0 Calma 10 Este 0 -- -- 95
2018-08-08 08:00:00 10.5 4 Noroeste 9 Noroeste 0 -- -- 95
2018-08-08 07:00:00 11.2 5 Noroeste 9 Norte 0 -- -- 94
2018-08-08 06:00:00 11.8 7 Norte 13 Este 0 -- -- 95
2018-08-08 05:00:00 12.8 5 Nordeste 12 Nordeste 0 -- -- 92
2018-08-08 04:00:00 13.2 5 Nordeste 10 Nordeste 0 -- -- 94
2018-08-08 03:00:00 14.7 3 Norte 7 Este 0 -- -- 94
2018-08-08 02:00:00 15.6 0 Calma 3 Noroeste 0 -- -- 93
2018-08-08 01:00:00 16.1 2 Noroeste 5 Noroeste 0 -- -- 91
2018-08-08 00:00:00 16.2 2 Norte 5 Noroeste 0 -- -- 91
2018-08-07 23:00:00 16.5 3 Norte 9 Norte 0 -- -- 89
2018-08-07 22:00:00 17.6 0 Calma 12 Oeste 0 -- -- 83
2018-08-07 21:00:00 19.8 8 Noroeste 19 Noroeste 0 -- -- 76
2018-08-07 20:00:00 20.8 12 Noroeste 23 Oeste 0 -- -- 73
2018-08-07 19:00:00 21.8 12 Noroeste 26 Oeste 0 -- -- 68
2018-08-07 18:00:00 22.3 15 Noroeste 25 Noroeste 0 -- -- 67
2018-08-07 17:00:00 22.3 13 Noroeste 23 Noroeste 0 -- -- 64
2018-08-07 16:00:00 22.6 15 Noroeste 27 Noroeste 0 -- -- 57
2018-08-07 15:00:00 22 11 Noroeste 24 Noroeste 0 -- -- 60
2018-08-07 14:00:00 21.6 10 Noroeste 22 Noroeste 0 -- -- 59
2018-08-07 13:00:00 19.9 8 Noroeste 19 Norte 0 -- -- 73
2018-08-07 12:00:00 18.5 11 Noroeste 18 Oeste 0 -- -- 80
2018-08-07 11:00:00 17.6 6 Noroeste 15 Noroeste 0 -- -- 89
2018-08-07 10:00:00 16.6 3 Noroeste 6 Noroeste 0 -- -- 96
2018-08-07 09:00:00 15.7 0 Calma 5 Sur 0 -- -- 98
2018-08-07 08:00:00 15.2 0 Calma 3 Sur 0 -- -- 97
2018-08-07 07:00:00 15.1 0 Calma 5 Norte 0 -- -- 96
2018-08-07 06:00:00 16.1 3 Este 8 Noroeste 0 -- -- 96
2018-08-07 05:00:00 16.3 3 Sudoeste 6 Oeste 0 -- -- 96
2018-08-07 04:00:00 16.4 0 Calma 6 Sudoeste 0 -- -- 95
2018-08-07 03:00:00 16.6 5 Oeste 13 Sudoeste 0 -- -- 96
2018-08-07 02:00:00 16.6 6 Sudoeste 19 Sur 0.2 -- -- 96
2018-08-07 01:00:00 16.1 7 Sur 13 Sudeste 0.2 -- -- 94
2018-08-07 00:00:00 16.5 8 Sudoeste 14 Oeste 0 -- -- 90
2018-08-06 23:00:00 16.7 4 Sudoeste 9 Sudoeste 0 -- -- 87
2018-08-06 22:00:00 16.7 4 Sur 15 Sudoeste 0 -- -- 85
2018-08-06 21:00:00 17.8 9 Oeste 20 Oeste 0 -- -- 79
2018-08-06 20:00:00 18.2 6 Sudoeste 21 Sudoeste 0 -- -- 80
2018-08-06 19:00:00 18.9 9 Sudoeste 23 Sudoeste 0 -- -- 78
2018-08-06 18:00:00 19.4 9 Sudoeste 26 Sudoeste 0 -- -- 77
2018-08-06 17:00:00 20.1 11 Sudoeste 19 Oeste 0 -- -- 80
2018-08-06 16:00:00 19.5 9 Sudoeste 17 Oeste 0 -- -- 83
2018-08-06 15:00:00 18.6 8 Sudoeste 13 Sudoeste 0 -- -- 91
2018-08-06 14:00:00 17.8 9 Sudoeste 15 Oeste 0 -- -- 97
2018-08-06 13:00:00 17.7 8 Oeste 16 Oeste 0 -- -- 97
2018-08-06 12:00:00 17.8 5 Sudoeste 12 Sudoeste 0 -- -- 97
2018-08-06 11:00:00 18 6 Oeste 9 Sudoeste 0 -- -- 97
2018-08-06 10:00:00 17.7 3 Sudoeste 7 Sudoeste 0 -- -- 98
2018-08-06 09:00:00 15.6 0 Calma 5 Sudeste 0 -- -- 95
2018-08-06 08:00:00 14.7 0 Calma 5 Noroeste 0 -- -- 86
2018-08-06 07:00:00 15.4 3 Noroeste 6 Noroeste 0 -- -- 87
2018-08-06 06:00:00 15.9 4 Noroeste 7 Noroeste 0 -- -- 90
2018-08-06 05:00:00 16.6 4 Noroeste 7 Noroeste 0 -- -- 90
2018-08-06 04:00:00 17.4 5 Noroeste 8 Noroeste 0 -- -- 87
2018-08-06 03:00:00 18.7 3 Noroeste 6 Noroeste 0 -- -- 83
2018-08-06 02:00:00 19.4 5 Noroeste 9 Noroeste 0 -- -- 83
2018-08-06 01:00:00 20.2 5 Noroeste 9 Norte 0 -- -- 79
2018-08-06 00:00:00 21.5 5 Noroeste 8 Noroeste 0 -- -- 75
2018-08-05 23:00:00 23.1 5 Norte 9 Norte 0 -- -- 75
2018-08-05 22:00:00 25.7 3 Norte 6 Nordeste 0 -- -- 76
2018-08-05 21:00:00 29.3 3 Nordeste 7 Norte 0 -- -- 64
2018-08-05 20:00:00 31.9 4 Norte 12 Noroeste 0 -- -- 53
2018-08-05 19:00:00 33.5 6 Noroeste 14 Noroeste 0 -- -- 44
2018-08-05 18:00:00 34.3 9 Noroeste 15 Oeste 0 -- -- 42
2018-08-05 17:00:00 35.7 6 Oeste 16 Sudoeste 0 -- -- 39
2018-08-05 16:00:00 35.7 6 Oeste 15 Sudoeste 0 -- -- 38
2018-08-05 15:00:00 35.5 7 Sudoeste 15 Sudoeste 0 -- -- 36
2018-08-05 14:00:00 34.6 6 Sudoeste 13 Oeste 0 -- -- 39
2018-08-05 13:00:00 32.5 6 Sudeste 21 Este 0 -- -- 48
2018-08-05 12:00:00 30 15 Este 26 Este 0 -- -- 53
2018-08-05 11:00:00 28.4 17 Este 28 Este 0 -- -- 56
2018-08-05 10:00:00 22.3 4 Norte 12 Norte 0 -- -- 70
2018-08-05 09:00:00 19.2 7 Norte 15 Nordeste 0 -- -- 66
2018-08-05 08:00:00 18.3 8 Noroeste 12 Norte 0 -- -- 63
2018-08-05 07:00:00 17.8 7 Norte 17 Nordeste 0 -- -- 67
2018-08-05 06:00:00 18.6 7 Norte 17 Nordeste 0 -- -- 64
2018-08-05 05:00:00 19.5 7 Norte 16 Norte 0 -- -- 59
2018-08-05 04:00:00 19.2 6 Norte 19 Este 0 -- -- 61
2018-08-05 03:00:00 19.8 8 Norte 18 Norte 0 -- -- 59
2018-08-05 02:00:00 19.8 9 Noroeste 13 Norte 0 -- -- 61
2018-08-05 01:00:00 20.7 7 Norte 17 Norte 0 -- -- 56
2018-08-05 00:00:00 22.6 6 Norte 18 Norte 0 -- -- 56
2018-08-04 23:00:00 25.2 6 Norte 17 Norte 0 -- -- 59
2018-08-04 22:00:00 27.6 6 Norte 14 Norte 0 -- -- 67
2018-08-04 21:00:00 30.5 6 Norte 13 Nordeste 0 -- -- 57
2018-08-04 20:00:00 33.2 6 Noroeste 19 Noroeste 0 -- -- 54
2018-08-04 19:00:00 34.4 11 Noroeste 18 Noroeste 0 -- -- 53
2018-08-04 18:00:00 35.6 11 Noroeste 19 Noroeste 0 -- -- 47
2018-08-04 17:00:00 36.1 14 Noroeste 22 Oeste 0 -- -- 43
2018-08-04 16:00:00 37.4 8 Sudoeste 15 Sudoeste 0 -- -- 39
2018-08-04 15:00:00 36.8 7 Sudoeste 16 Sudoeste 0 -- -- 39
2018-08-04 14:00:00 36.1 7 Sudoeste 15 Sudoeste 0 -- -- 42
2018-08-04 13:00:00 34.6 4 Sudeste 13 Este 0 -- -- 45
2018-08-04 12:00:00 32.4 9 Este 17 Este 0 -- -- 57
2018-08-04 11:00:00 30.1 4 Nordeste 19 Este 0 -- -- 64
2018-08-04 10:00:00 26.5 6 Nordeste 15 Norte 0 -- -- 73
2018-08-04 09:00:00 23 7 Norte 14 Norte 0 -- -- 80
2018-08-04 08:00:00 20.4 8 Norte 15 Norte 0 -- -- 83
2018-08-04 07:00:00 20.5 6 Norte 17 Nordeste 0 -- -- 82
2018-08-04 06:00:00 20.3 6 Norte 14 Nordeste 0 -- -- 85
2018-08-04 05:00:00 21 5 Norte 10 Noroeste 0 -- -- 82
2018-08-04 04:00:00 20.7 6 Norte 13 Nordeste 0 -- -- 83
2018-08-04 03:00:00 20.6 6 Norte 18 Nordeste 0 -- -- 80
2018-08-04 02:00:00 21.8 6 Norte 17 Este 0 -- -- 75
2018-08-04 01:00:00 23.1 7 Nordeste 16 Nordeste 0 -- -- 70
2018-08-04 00:00:00 25.8 9 Nordeste 18 Nordeste 0 -- -- 60
2018-08-03 23:00:00 26.5 5 Nordeste 14 Nordeste 0 -- -- 63
2018-08-03 22:00:00 28.8 5 Nordeste 15 Nordeste 0 -- -- 64
2018-08-03 21:00:00 31.3 4 Norte 11 Nordeste 0 -- -- 63
2018-08-03 20:00:00 34.2 5 Este 13 Noroeste 0 -- -- 55
2018-08-03 19:00:00 36.3 5 Norte 11 Norte 0 -- -- 46
2018-08-03 18:00:00 36.9 5 Norte 15 Noroeste 0 -- -- 41
2018-08-03 17:00:00 37.7 3 Norte 12 Noroeste 0 -- -- 31
2018-08-03 16:00:00 37.2 9 Noroeste 17 Noroeste 0 -- -- 33
2018-08-03 15:00:00 37.2 4 Oeste 11 Sudeste 0 -- -- 29
2018-08-03 14:00:00 36.3 5 Sur 16 Oeste 0 -- -- 41
2018-08-03 13:00:00 34.9 3 Este 6 Sudeste 0 -- -- 47
2018-08-03 12:00:00 32.7 5 Este 13 Nordeste 0 -- -- 52
2018-08-03 11:00:00 29.6 4 Noroeste 14 Norte 0 -- -- 71
2018-08-03 10:00:00 25.3 10 Norte 14 Norte 0 -- -- 78
2018-08-03 09:00:00 21.8 7 Norte 14 Nordeste 0 -- -- 83
2018-08-03 08:00:00 20.5 7 Norte 17 Norte 0 -- -- 82
2018-08-03 07:00:00 22 9 Norte 19 Nordeste 0 -- -- 76
2018-08-03 06:00:00 19.9 5 Noroeste 12 Nordeste 0 -- -- 84
2018-08-03 05:00:00 19.5 5 Norte 13 Nordeste 0 -- -- 86
2018-08-03 04:00:00 20.6 6 Norte 14 Nordeste 0 -- -- 84
2018-08-03 03:00:00 20.7 5 Norte 9 Nordeste 0 -- -- 86
2018-08-03 02:00:00 21.5 5 Noroeste 17 Nordeste 0 -- -- 83
2018-08-03 01:00:00 23.2 8 Nordeste 18 Nordeste 0 -- -- 76
2018-08-03 00:00:00 23.5 4 Norte 16 Norte 0 -- -- 78
2018-08-02 23:00:00 24.7 3 Norte 12 Nordeste 0 -- -- 81
2018-08-02 22:00:00 27.4 5 Nordeste 10 Este 0 -- -- 75
2018-08-02 21:00:00 30.9 0 Calma 6 Oeste 0 -- -- 59
2018-08-02 20:00:00 33.6 2 Noroeste 9 Noroeste 0 -- -- 51
2018-08-02 19:00:00 34.6 6 Noroeste 13 Noroeste 0 -- -- 43
2018-08-02 18:00:00 35.2 9 Noroeste 17 Norte 0 -- -- 41
2018-08-02 17:00:00 36 9 Noroeste 17 Sudoeste 0 -- -- 40
2018-08-02 16:00:00 36.7 6 Sudoeste 16 Sudoeste 0 -- -- 37
2018-08-02 15:00:00 36.2 8 Sudoeste 15 Sudoeste 0 -- -- 35
2018-08-02 14:00:00 34.8 6 Sudoeste 18 Este 0 -- -- 40
2018-08-02 13:00:00 32.4 11 Este 30 Este 0 -- -- 49
2018-08-02 12:00:00 30.2 18 Este 32 Este 0 -- -- 51
2018-08-02 11:00:00 28.6 18 Este 35 Este 0 -- -- 53
2018-08-02 10:00:00 27.1 21 Este 32 Este 0 -- -- 55
2018-08-02 09:00:00 25.9 12 Este 25 Este 0 -- -- 57
2018-08-02 08:00:00 24.8 13 Este 32 Este 0 -- -- 60
2018-08-02 07:00:00 23.1 7 Norte 37 Este 0 -- -- 66
2018-08-02 06:00:00 24.9 19 Este 33 Este 0 -- -- 61
2018-08-02 05:00:00 24.9 21 Este 34 Este 0 -- -- 62
2018-08-02 04:00:00 24.9 20 Este 33 Este 0 -- -- 61
2018-08-02 03:00:00 24.5 19 Este 34 Este 0 -- -- 61
2018-08-02 02:00:00 24.2 20 Este 32 Este 0 -- -- 63
2018-08-02 01:00:00 24.2 18 Este 30 Este 0 -- -- 61
2018-08-02 00:00:00 22.3 12 Este 22 Este 0 -- -- 70
2018-08-01 23:00:00 22.7 11 Nordeste 21 Este 0 -- -- 70
2018-08-01 22:00:00 24.1 8 Este 15 Nordeste 0 -- -- 69
2018-08-01 21:00:00 27.3 5 Nordeste 16 Nordeste 0 -- -- 60
2018-08-01 20:00:00 29.2 8 Noroeste 21 Noroeste 0 -- -- 60
2018-08-01 19:00:00 29.3 13 Noroeste 22 Noroeste 0 -- -- 57
2018-08-01 18:00:00 29.7 7 Norte 18 Noroeste 0 -- -- 53
2018-08-01 17:00:00 29.3 10 Noroeste 17 Norte 0 -- -- 53
2018-08-01 16:00:00 28.8 5 Oeste 15 Noroeste 0 -- -- 54
2018-08-01 15:00:00 27.4 6 Oeste 14 Sudoeste 0 -- -- 54
2018-08-01 14:00:00 26.5 7 Sudoeste 14 Sudoeste 0 -- -- 64
2018-08-01 13:00:00 24.3 8 Este 24 Este 0 -- -- 62
2018-08-01 12:00:00 21.5 15 Este 36 Este 0 -- -- 72
2018-08-01 11:00:00 18.9 22 Este 43 Este 0 -- -- 75
2018-08-01 10:00:00 17.3 26 Este 48 Este 0 -- -- 78
2018-08-01 09:00:00 16 27 Este 47 Este 0 -- -- 78
2018-08-01 08:00:00 13.8 26 Este 42 Este 0 -- -- 90
2018-08-01 07:00:00 14.4 23 Este 36 Este 0 -- -- 88
2018-08-01 06:00:00 14.8 19 Este 33 Este 0 -- -- 87
2018-08-01 05:00:00 14.7 13 Este 31 Este 0 -- -- 87
2018-08-01 04:00:00 15.1 14 Este 34 Este 0 -- -- 85
2018-08-01 03:00:00 15 14 Este 36 Este 0 -- -- 85
2018-08-01 02:00:00 15.3 16 Este 29 Nordeste 0 -- -- 84
2018-08-01 01:00:00 15.3 15 Este 27 Este 0 -- -- 87
2018-08-01 00:00:00 15.2 6 Norte 15 Nordeste 0 -- -- 86
2018-07-31 23:00:00 15.8 5 Norte 20 Norte 0 -- -- 81
2018-07-31 22:00:00 17.3 6 Norte 21 Este 0 -- -- 75
2018-07-31 21:00:00 20.5 9 Norte 26 Norte 0 -- -- 69
2018-07-31 20:00:00 22.4 14 Noroeste 24 Noroeste 0 -- -- 62
2018-07-31 19:00:00 22.9 9 Norte 23 Noroeste 0 -- -- 63
2018-07-31 18:00:00 23.6 10 Noroeste 21 Noroeste 0 -- -- 61
2018-07-31 17:00:00 23.2 9 Noroeste 20 Norte 0 -- -- 64
2018-07-31 16:00:00 23.1 12 Noroeste 22 Noroeste 0 -- -- 63
2018-07-31 15:00:00 21.8 9 Norte 16 Noroeste 0 -- -- 66
2018-07-31 14:00:00 20.8 9 Noroeste 18 Noroeste 0 -- -- 70
2018-07-31 13:00:00 18.9 11 Noroeste 19 Noroeste 0 -- -- 78
2018-07-31 12:00:00 20.1 4 Oeste 10 Noroeste 0 -- -- 74
2018-07-31 11:00:00 18.8 4 Noroeste 9 Oeste 0 -- -- 83
2018-07-31 10:00:00 16.8 2 Norte 6 Norte 0 -- -- 91
2018-07-31 09:00:00 15.2 3 Norte 6 Norte 0 -- -- 99
2018-07-31 08:00:00 14.6 0 Calma 6 Noroeste 0 -- -- 98
2018-07-31 07:00:00 14.7 3 Norte 6 Nordeste 0 -- -- 98
2018-07-31 06:00:00 14.9 3 Norte 8 Nordeste 0 -- -- 99
2018-07-31 05:00:00 14.9 3 Nordeste 6 Nordeste 0 -- -- 99
2018-07-31 04:00:00 14.9 2 Norte 5 Norte 0 -- -- 99
2018-07-31 03:00:00 14.9 3 Norte 5 Norte 0 -- -- 99
2018-07-31 02:00:00 14.8 0 Calma 4 Noroeste 0 -- -- 99
2018-07-31 01:00:00 15 4 Sudeste 7 Este 0.2 -- -- 98
2018-07-31 00:00:00 15.4 0 Calma 6 Sudeste 0 -- -- 99
2018-07-30 23:00:00 15.7 3 Sudoeste 8 Sudeste 0.2 -- -- 98
2018-07-30 22:00:00 16.2 0 Calma 12 Oeste 0.6 -- -- 98
2018-07-30 21:00:00 17.4 9 Oeste 26 Sudoeste 1 -- -- 98
2018-07-30 20:00:00 18.5 10 Oeste 26 Oeste 4 -- -- 97
2018-07-30 19:00:00 18.9 6 Sur 19 Sudoeste 3.6 -- -- 97
2018-07-30 18:00:00 18.9 9 Sudoeste 22 Sur 1.8 -- -- 97
2018-07-30 17:00:00 19 10 Sur 22 Sudoeste 1.8 -- -- 95
2018-07-30 16:00:00 19.6 9 Sudoeste 23 Sudoeste 0.4 -- -- 92
2018-07-30 15:00:00 19.7 7 Sur 24 Sudoeste 0 -- -- 91
2018-07-30 14:00:00 19.9 9 Sudoeste 21 Sudoeste 0.2 -- -- 94
2018-07-30 13:00:00 18.1 7 Sudoeste 17 Sudoeste 0.2 -- -- 96
2018-07-30 12:00:00 17.8 5 Sur 15 Sudoeste 0.2 -- -- 96
2018-07-30 11:00:00 17.2 5 Sur 13 Sur 0 -- -- 97
2018-07-30 10:00:00 16.5 3 Sur 14 Sudoeste 0.2 -- -- 98
2018-07-30 09:00:00 16 5 Sur 13 Sur 0.6 -- -- 98
2018-07-30 08:00:00 15.8 5 Sur 14 Sur 0 -- -- 98
2018-07-30 07:00:00 15.8 7 Sur 16 Sudoeste 0.2 -- -- 98
2018-07-30 06:00:00 15.9 8 Sur 15 Sur 0 -- -- 98
2018-07-30 05:00:00 15.9 5 Sur 14 Sudoeste 0.4 -- -- 98
2018-07-30 04:00:00 15.8 5 Sur 17 Sudoeste 0 -- -- 98
2018-07-30 03:00:00 15.7 6 Sur 16 Sur 0.2 -- -- 98
2018-07-30 02:00:00 15.8 4 Sur 15 Sudoeste 0.4 -- -- 97
2018-07-30 01:00:00 15.9 4 Sudoeste 14 Sudoeste 0 -- -- 97
2018-07-30 00:00:00 15.8 3 Sudoeste 15 Sur 0.2 -- -- 97
2018-07-29 23:00:00 15.9 8 Sudoeste 16 Sudoeste 0.2 -- -- 95
2018-07-29 22:00:00 16.5 7 Sudoeste 22 Oeste 0 -- -- 92
2018-07-29 21:00:00 17.3 7 Sudoeste 18 Sudoeste 0 -- -- 85
2018-07-29 20:00:00 17.5 7 Oeste 15 Oeste 0 -- -- 85
2018-07-29 19:00:00 17.6 8 Sudoeste 21 Sudoeste 0 -- -- 83
2018-07-29 18:00:00 17.9 11 Sudoeste 22 Oeste 0 -- -- 79
2018-07-29 17:00:00 18.6 11 Oeste 24 Oeste 0 -- -- 75
2018-07-29 16:00:00 18.9 11 Oeste 19 Sudoeste 0 -- -- 74
2018-07-29 15:00:00 18.1 9 Sur 28 Sur 0 -- -- 77
2018-07-29 14:00:00 17.5 8 Sudoeste 19 Sudoeste 0 -- -- 77
2018-07-29 13:00:00 16.5 9 Sudoeste 20 Sudoeste 0 -- -- 81
2018-07-29 12:00:00 16.8 9 Sudoeste 22 Sudoeste 0 -- -- 77
2018-07-29 11:00:00 16.5 8 Sur 17 Sudoeste 0 -- -- 82
2018-07-29 10:00:00 15.1 5 Sur 14 Sudoeste 0 -- -- 87
2018-07-29 09:00:00 12.3 3 Noroeste 6 Noroeste 0 -- -- 98
2018-07-29 08:00:00 10.4 5 Noroeste 7 Noroeste 0 -- -- 97
2018-07-29 07:00:00 9.5 2 Norte 6 Noroeste 0 -- -- 96
2018-07-29 06:00:00 9.1 0 Calma 4 Noroeste 0 -- -- 96
2018-07-29 05:00:00 9.6 0 Calma 4 Noroeste 0 -- -- 96
2018-07-29 04:00:00 9.8 3 Noroeste 4 Noroeste 0 -- -- 94
2018-07-29 03:00:00 10.5 3 Noroeste 5 Noroeste 0 -- -- 94
2018-07-29 02:00:00 11.6 0 Calma 4 Este 0 -- -- 91
2018-07-29 01:00:00 13.6 0 Calma 6 Oeste 0 -- -- 84
2018-07-29 00:00:00 14.8 3 Sudoeste 12 Oeste 0 -- -- 82
2018-07-28 23:00:00 15.5 6 Oeste 15 Oeste 0 -- -- 80
2018-07-28 22:00:00 16.6 6 Noroeste 15 Oeste 0 -- -- 76
2018-07-28 21:00:00 18.6 9 Oeste 18 Oeste 0 -- -- 71
2018-07-28 20:00:00 20.2 10 Oeste 19 Sudoeste 0 -- -- 67
2018-07-28 19:00:00 20.9 9 Oeste 19 Noroeste 0 -- -- 67
2018-07-28 18:00:00 21 10 Oeste 22 Oeste 0 -- -- 68
2018-07-28 17:00:00 21.6 12 Oeste 24 Sudoeste 0 -- -- 68
2018-07-28 16:00:00 21.4 9 Oeste 19 Oeste 0 -- -- 69
2018-07-28 15:00:00 21.4 7 Sudoeste 18 Sudoeste 0 -- -- 69
2018-07-28 14:00:00 20.5 7 Oeste 15 Oeste 0 -- -- 73
2018-07-28 13:00:00 18.6 3 Oeste 11 Sudoeste 0 -- -- 84
2018-07-28 12:00:00 17.1 4 Noroeste 10 Sudoeste 0 -- -- 91
2018-07-28 11:00:00 16 3 Sudoeste 9 Sudoeste 0 -- -- 96
2018-07-28 10:00:00 15.3 0 Calma 5 Sudoeste 0.6 -- -- 97
2018-07-28 09:00:00 14.9 0 Calma 4 Norte 0 -- -- 97
2018-07-28 08:00:00 14.7 0 Calma 5 Noroeste 0 -- -- 97
2018-07-28 07:00:00 14.7 2 Noroeste 6 Norte 0 -- -- 96
2018-07-28 06:00:00 14.7 0 Calma 4 Oeste 0 -- -- 95
2018-07-28 05:00:00 14.8 0 Calma 6 Oeste 0 -- -- 93
2018-07-28 04:00:00 15.3 0 Calma 4 Nordeste 0 -- -- 91
2018-07-28 03:00:00 15.2 0 Calma 5 Noroeste 0 -- -- 92
2018-07-28 02:00:00 15.2 0 Calma 3 Este 0 -- -- 92
2018-07-28 01:00:00 15.5 0 Calma 5 Sudoeste 0 -- -- 90
2018-07-28 00:00:00 15.9 3 Sur 6 Sudoeste 0 -- -- 88
2018-07-27 23:00:00 16.3 0 Calma 8 Oeste 0 -- -- 84
2018-07-27 22:00:00 16.7 4 Oeste 14 Noroeste 0 -- -- 80
2018-07-27 21:00:00 17.4 8 Noroeste 22 Oeste 0 -- -- 75
2018-07-27 20:00:00 18.4 11 Noroeste 22 Oeste 0 -- -- 71
2018-07-27 19:00:00 18.8 13 Noroeste 23 Noroeste 0 -- -- 71
2018-07-27 18:00:00 19.1 14 Noroeste 25 Oeste 0 -- -- 70
2018-07-27 17:00:00 19.1 11 Oeste 24 Oeste 0 -- -- 78
2018-07-27 16:00:00 20.8 11 Oeste 21 Sudoeste 0 -- -- 67
2018-07-27 15:00:00 19.8 9 Oeste 21 Sudoeste 0 -- -- 72
2018-07-27 14:00:00 18.6 9 Oeste 17 Oeste 0 -- -- 77
2018-07-27 13:00:00 18.2 5 Sur 12 Sur 0 -- -- 86
2018-07-27 12:00:00 17.7 4 Sudoeste 11 Sudoeste 0 -- -- 87
2018-07-27 11:00:00 17.3 4 Sudoeste 8 Sudeste 0 -- -- 90
2018-07-27 10:00:00 16.2 4 Sudoeste 8 Sudoeste 0 -- -- 97
2018-07-27 09:00:00 15.5 2 Sur 5 Sudeste 0.4 -- -- 98
2018-07-27 08:00:00 15.1 0 Calma 4 Sur 0.4 -- -- 98
2018-07-27 07:00:00 14.9 2 Sudoeste 7 Oeste 0.2 -- -- 97
2018-07-27 06:00:00 14.9 2 Sudeste 8 Norte 0 -- -- 94
2018-07-27 05:00:00 14.5 0 Calma -- -- 0 -- -- 93
2018-07-27 04:00:00 14 0 Calma 6 Norte 0 -- -- 94
2018-07-27 03:00:00 13.5 3 Norte 8 Este 0 -- -- 94
2018-07-27 02:00:00 12.7 4 Norte 10 Norte 0 -- -- 94
2018-07-27 01:00:00 13.5 3 Norte 8 Nordeste 0 -- -- 93
2018-07-27 00:00:00 14.5 3 Norte 6 Este 0 -- -- 91
2018-07-26 23:00:00 15.9 0 Calma 3 Sudeste 0 -- -- 87
2018-07-26 22:00:00 17.6 0 Calma 13 Noroeste 0 -- -- 81
2018-07-26 21:00:00 19.7 6 Noroeste 13 Noroeste 0 -- -- 73
2018-07-26 20:00:00 21.2 8 Noroeste 18 Noroeste 0 -- -- 68
2018-07-26 19:00:00 22.2 10 Noroeste 19 Noroeste 0 -- -- 66
2018-07-26 18:00:00 22.7 9 Noroeste 18 Noroeste 0 -- -- 65
2018-07-26 17:00:00 22 10 Noroeste 20 Noroeste 0 -- -- 69
2018-07-26 16:00:00 22.2 9 Oeste 19 Sudoeste 0 -- -- 68
2018-07-26 15:00:00 22.7 10 Oeste 21 Oeste 0 -- -- 70
2018-07-26 14:00:00 22.3 5 Noroeste 17 Oeste 0 -- -- 67
2018-07-26 13:00:00 20.9 7 Noroeste 17 Noroeste 0 -- -- 73
2018-07-26 12:00:00 20.5 4 Oeste 14 Oeste 0 -- -- 74
2018-07-26 11:00:00 19.5 7 Oeste 11 Oeste 0 -- -- 81
2018-07-26 10:00:00 17.9 2 Oeste 8 Sudoeste 0 -- -- 91
2018-07-26 09:00:00 17 0 Calma 3 Este 0 -- -- 97
2018-07-26 08:00:00 16.6 2 Norte 4 Norte 0 -- -- 97
2018-07-26 07:00:00 16.6 0 Calma 5 Sudeste 0 -- -- 97
2018-07-26 06:00:00 16.5 0 Calma 4 Noroeste 0 -- -- 97
2018-07-26 05:00:00 16.5 0 Calma 5 Sudeste 0 -- -- 97
2018-07-26 04:00:00 16.5 3 Sur 6 Sudeste 0 -- -- 98
2018-07-26 03:00:00 16.4 2 Sur 13 Sudoeste 0 -- -- 98
2018-07-26 02:00:00 16.6 3 Sur 8 Sudoeste 0 -- -- 97
2018-07-26 01:00:00 16.8 0 Calma 6 Sudoeste 0 -- -- 96
2018-07-26 00:00:00 17 3 Sur 6 Sudoeste 0 -- -- 93
2018-07-25 23:00:00 18.5 0 Calma 8 Sudoeste 0 -- -- 87
2018-07-25 22:00:00 20.6 4 Sudoeste 15 Sudoeste 0 -- -- 80
2018-07-25 21:00:00 23.4 6 Oeste 15 Oeste 0 -- -- 70
2018-07-25 20:00:00 24.8 8 Oeste 19 Oeste 0 -- -- 63
2018-07-25 19:00:00 26 8 Oeste 19 Sudoeste 0 -- -- 59
2018-07-25 18:00:00 26.3 10 Oeste 27 Oeste 0 -- -- 59
2018-07-25 17:00:00 27.1 9 Oeste 23 Sudoeste 0 -- -- 58
2018-07-25 16:00:00 27.4 10 Sudoeste 21 Sudoeste 0 -- -- 57
2018-07-25 15:00:00 26.8 7 Sudoeste 16 Oeste 0 -- -- 62
2018-07-25 14:00:00 25.5 7 Oeste 20 Sudoeste 0 -- -- 62
2018-07-25 13:00:00 25 5 Oeste 16 Sudoeste 0 -- -- 62
2018-07-25 12:00:00 23.8 2 Nordeste 16 Este 0 -- -- 68
2018-07-25 11:00:00 22.1 9 Este 20 Este 0 -- -- 70
2018-07-25 10:00:00 20.3 13 Este 23 Este 0 -- -- 78
2018-07-25 09:00:00 19.2 13 Este 22 Este 0 -- -- 82
2018-07-25 08:00:00 17.5 12 Este 24 Este 0 -- -- 87
2018-07-25 07:00:00 17.3 12 Este 23 Este 0 -- -- 88
2018-07-25 06:00:00 17.1 5 Nordeste 20 Este 0 -- -- 87
2018-07-25 05:00:00 17.4 12 Este 31 Este 0 -- -- 88
2018-07-25 04:00:00 17.5 15 Este 24 Este 0 -- -- 87
2018-07-25 03:00:00 17.7 13 Este 23 Este 0 -- -- 87
2018-07-25 02:00:00 18.1 12 Este 25 Este 0 -- -- 88
2018-07-25 01:00:00 18.4 12 Este 19 Este 0 -- -- 89
2018-07-25 00:00:00 18.5 3 Nordeste 13 Norte 0 -- -- 88
2018-07-24 23:00:00 19.3 5 Norte 19 Nordeste 0 -- -- 85
2018-07-24 22:00:00 20.5 5 Norte 15 Noroeste 0 -- -- 82
2018-07-24 21:00:00 22.1 11 Noroeste 21 Noroeste 0 -- -- 77
2018-07-24 20:00:00 24 10 Noroeste 22 Noroeste 0 -- -- 71
2018-07-24 19:00:00 24.1 14 Noroeste 23 Noroeste 0 -- -- 70
2018-07-24 18:00:00 24.7 17 Noroeste 25 Noroeste 0 -- -- 67
2018-07-24 17:00:00 24.7 8 Noroeste 20 Noroeste 0 -- -- 67
2018-07-24 16:00:00 23.6 12 Norte 24 Noroeste 0 -- -- 71
2018-07-24 15:00:00 22.4 12 Noroeste 22 Noroeste 0 -- -- 74
2018-07-24 14:00:00 21.9 15 Noroeste 23 Noroeste 0 -- -- 76
2018-07-24 13:00:00 21.4 4 Sudoeste 14 Noroeste 0 -- -- 78
2018-07-24 12:00:00 20.4 5 Sur 11 Sudoeste 0 -- -- 83
2018-07-24 11:00:00 18.4 4 Sudoeste 8 Sur 0 -- -- 92
2018-07-24 10:00:00 16.9 3 Sur 6 Sudeste 0 -- -- 98
2018-07-24 09:00:00 15.9 0 Calma 4 Sur 0 -- -- 98
2018-07-24 08:00:00 15.3 0 Calma 4 Noroeste 0 -- -- 97
2018-07-24 07:00:00 15.1 0 Calma 4 Noroeste 0 -- -- 97
2018-07-24 06:00:00 14.7 0 Calma 5 Noroeste 0 -- -- 96
2018-07-24 05:00:00 14.3 0 Calma 5 Noroeste 0 -- -- 96
2018-07-24 04:00:00 13.9 2 Noroeste 6 Nordeste 0 -- -- 95
2018-07-24 03:00:00 13.6 0 Calma 8 Este 0 -- -- 95
2018-07-24 02:00:00 14.6 2 Norte 8 Norte 0 -- -- 94
2018-07-24 01:00:00 15.7 4 Nordeste 8 Nordeste 0 -- -- 93
2018-07-24 00:00:00 17.1 0 Calma 4 Noroeste 0 -- -- 90
2018-07-23 23:00:00 17.5 3 Noroeste 6 Noroeste 0 -- -- 89
2018-07-23 22:00:00 18.5 2 Norte 13 Norte 0 -- -- 85
2018-07-23 21:00:00 21.1 8 Noroeste 17 Noroeste 0 -- -- 74
2018-07-23 20:00:00 22.9 11 Noroeste 17 Noroeste 0 -- -- 69
2018-07-23 19:00:00 24.3 8 Noroeste 20 Oeste 0 -- -- 66
2018-07-23 18:00:00 25 7 Noroeste 24 Norte 0 -- -- 66
2018-07-23 17:00:00 24.7 12 Noroeste 25 Noroeste 0 -- -- 67
2018-07-23 16:00:00 26 16 Noroeste 23 Noroeste 0 -- -- 65
2018-07-23 15:00:00 26.9 10 Sudoeste 19 Sudoeste 0 -- -- 62
2018-07-23 14:00:00 26.4 10 Sudoeste 22 Oeste 0 -- -- 61
2018-07-23 13:00:00 25.9 7 Sudoeste 16 Sudoeste 0 -- -- 64
2018-07-23 12:00:00 24.5 8 Oeste 15 Oeste 0 -- -- 65
2018-07-23 11:00:00 23.3 7 Oeste 13 Oeste 0 -- -- 69
2018-07-23 10:00:00 22.2 5 Sudoeste 16 Sudoeste 0 -- -- 74
2018-07-23 09:00:00 21.3 10 Este 18 Este 0 -- -- 72
2018-07-23 08:00:00 16.4 3 Noroeste 8 Norte 0 -- -- 88
2018-07-23 07:00:00 16.6 4 Norte 16 Este 0 -- -- 84
2018-07-23 06:00:00 20.4 7 Este 14 Este 0 -- -- 74
2018-07-23 05:00:00 19.2 5 Nordeste 24 Este 0 -- -- 77
2018-07-23 04:00:00 21.6 13 Este 30 Este 0 -- -- 68
2018-07-23 03:00:00 21.9 19 Este 33 Este 0 -- -- 68
2018-07-23 02:00:00 21.8 20 Este 32 Este 0 -- -- 68
2018-07-23 01:00:00 21.6 19 Este 34 Este 0 -- -- 69
2018-07-23 00:00:00 20.8 13 Este 29 Este 0 -- -- 74
2018-07-22 23:00:00 21.4 12 Este 21 Este 0 -- -- 74
2018-07-22 22:00:00 23.4 4 Nordeste 17 Noroeste 0 -- -- 68
2018-07-22 21:00:00 25.6 10 Noroeste 22 Noroeste 0 -- -- 63
2018-07-22 20:00:00 26.9 10 Noroeste 23 Noroeste 0 -- -- 57
2018-07-22 19:00:00 27.6 15 Noroeste 23 Noroeste 0 -- -- 54
2018-07-22 18:00:00 27.6 3 Oeste 13 Este 0 -- -- 47
2018-07-22 17:00:00 27.8 6 Este 18 Este 0 -- -- 47
2018-07-22 16:00:00 26.9 4 Nordeste 16 Este 0 -- -- 46
2018-07-22 15:00:00 24.8 5 Nordeste 17 Este 0 -- -- 55
2018-07-22 14:00:00 24.6 10 Este 21 Este 0 -- -- 54
2018-07-22 13:00:00 24.2 8 Sudeste 21 Este 0 -- -- 59
2018-07-22 12:00:00 22.5 10 Este 19 Este 0 -- -- 66
2018-07-22 11:00:00 20.7 11 Este 29 Este 0 -- -- 70
2018-07-22 10:00:00 18.4 17 Este 32 Este 0 -- -- 77
2018-07-22 09:00:00 17.2 21 Este 40 Este 0 -- -- 79
2018-07-22 08:00:00 15.8 5 Nordeste 22 Nordeste 0 -- -- 85
2018-07-22 07:00:00 15.5 12 Nordeste 27 Nordeste 0 -- -- 87
2018-07-22 06:00:00 15.6 10 Nordeste 19 Este 0 -- -- 87
2018-07-22 05:00:00 15.8 6 Nordeste 20 Este 0 -- -- 87
2018-07-22 04:00:00 16 7 Este 16 Este 0 -- -- 87
2018-07-22 03:00:00 15.7 5 Nordeste 22 Este 0 -- -- 89
2018-07-22 02:00:00 15.6 8 Nordeste 20 Este 0 -- -- 88
2018-07-22 01:00:00 15.5 5 Nordeste 13 Este 0 -- -- 88
2018-07-22 00:00:00 16 3 Noroeste 14 Nordeste 0 -- -- 87
2018-07-21 23:00:00 16.7 4 Nordeste 17 Nordeste 0 -- -- 85
2018-07-21 22:00:00 18 4 Norte 16 Noroeste 0 -- -- 81
2018-07-21 21:00:00 19.6 8 Noroeste 17 Noroeste 0 -- -- 79
2018-07-21 20:00:00 20.8 9 Norte 21 Noroeste 0 -- -- 73
2018-07-21 19:00:00 21 12 Noroeste 21 Norte 0 -- -- 75
2018-07-21 18:00:00 21.5 6 Noroeste 18 Noroeste 0 -- -- 70
2018-07-21 17:00:00 21.3 11 Noroeste 24 Noroeste 0 -- -- 72
2018-07-21 16:00:00 20.6 8 Noroeste 18 Norte 0 -- -- 73
2018-07-21 15:00:00 20.4 7 Noroeste 17 Norte 0 -- -- 74
2018-07-21 14:00:00 21.1 6 Norte 19 Noroeste 0 -- -- 70
2018-07-21 13:00:00 20 4 Nordeste 19 Noroeste 0 -- -- 74
2018-07-21 12:00:00 19.3 10 Noroeste 21 Noroeste 0 -- -- 75
2018-07-21 11:00:00 19.1 6 Noroeste 15 Noroeste 0 -- -- 71
2018-07-21 10:00:00 16.1 3 Noroeste 6 Norte 0 -- -- 69
2018-07-21 09:00:00 11.5 4 Noroeste 10 Norte 0 -- -- 91
2018-07-21 08:00:00 10.7 4 Nordeste 12 Nordeste 0 -- -- 92
2018-07-21 07:00:00 9.6 5 Norte 9 Nordeste 0 -- -- 93
2018-07-21 06:00:00 11.5 5 Nordeste 11 Este 0 -- -- 93
2018-07-21 05:00:00 12.4 4 Nordeste 8 Nordeste 0 -- -- 92
2018-07-21 04:00:00 13.7 3 Noroeste 16 Nordeste 0 -- -- 87
2018-07-21 03:00:00 14.8 8 Nordeste 22 Nordeste 0 -- -- 84
2018-07-21 02:00:00 15.4 8 Norte 18 Nordeste 0 -- -- 83
2018-07-21 01:00:00 15.7 7 Nordeste 24 Nordeste 0 -- -- 85
2018-07-21 00:00:00 15.6 6 Este 19 Este 0 -- -- 85
2018-07-20 23:00:00 16.5 5 Este 22 Norte 0 -- -- 79
2018-07-20 22:00:00 18 7 Norte 25 Noroeste 0 -- -- 73
2018-07-20 21:00:00 20.1 10 Norte 26 Noroeste 0 -- -- 65
2018-07-20 20:00:00 21.4 5 Nordeste 24 Norte 0 -- -- 64
2018-07-20 19:00:00 22.1 11 Nordeste 27 Norte 0 -- -- 63
2018-07-20 18:00:00 22.7 9 Norte 24 Este 0 -- -- 60
2018-07-20 17:00:00 22.9 8 Norte 22 Norte 0 -- -- 61
2018-07-20 16:00:00 22 7 Norte 24 Noroeste 0 -- -- 61
2018-07-20 15:00:00 21.6 7 Norte 18 Este 0 -- -- 64
2018-07-20 14:00:00 20.5 6 Nordeste 21 Norte 0 -- -- 70
2018-07-20 13:00:00 20.1 8 Norte 22 Este 0 -- -- 69
2018-07-20 12:00:00 19.8 6 Nordeste 18 Este 0 -- -- 72
2018-07-20 11:00:00 17.3 5 Nordeste 27 Norte 0 -- -- 82
2018-07-20 10:00:00 16.3 8 Norte 24 Este 0 -- -- 86
2018-07-20 09:00:00 15.9 8 Nordeste 23 Noroeste 0 -- -- 86
2018-07-20 08:00:00 15.3 6 Norte 14 Norte 0 -- -- 89
2018-07-20 07:00:00 14.6 4 Nordeste 17 Nordeste 0 -- -- 87
2018-07-20 06:00:00 14.7 3 Nordeste 12 Nordeste 0 -- -- 86
2018-07-20 05:00:00 15.1 4 Norte 20 Este 0 -- -- 85
2018-07-20 04:00:00 15.8 5 Nordeste 17 Nordeste 0 -- -- 82
2018-07-20 03:00:00 15.9 5 Nordeste 14 Nordeste 0 -- -- 85
2018-07-20 02:00:00 16.4 4 Nordeste 15 Norte 0 -- -- 87
2018-07-20 01:00:00 16.9 4 Nordeste 21 Este 0 -- -- 85
2018-07-20 00:00:00 17.3 9 Este 18 Noroeste 0 -- -- 83